createdAt,value
2023-05-10T00:00:17.954Z,11.44
2023-05-10T00:03:11.498Z,11.44
2023-05-10T00:05:44.974Z,11.40
2023-05-10T00:08:18.820Z,11.37
2023-05-10T00:10:52.429Z,11.36
2023-05-10T00:13:26.536Z,11.34
2023-05-10T00:16:00.411Z,11.30
2023-05-10T00:18:33.706Z,11.26
2023-05-10T00:21:07.713Z,11.23
2023-05-10T00:23:40.956Z,11.22
2023-05-10T00:26:14.923Z,11.21
2023-05-10T00:28:49.875Z,11.19
2023-05-10T00:31:25.758Z,11.16
2023-05-10T00:33:59.757Z,11.14
2023-05-10T00:36:34.138Z,11.12
2023-05-10T00:39:08.030Z,11.09
2023-05-10T00:41:42.156Z,11.05
2023-05-10T00:44:16.385Z,11.01
2023-05-10T00:46:50.496Z,11.00
2023-05-10T00:49:24.081Z,10.97
2023-05-10T00:51:57.558Z,10.96
2023-05-10T00:54:31.326Z,10.93
2023-05-10T00:57:04.699Z,10.89
2023-05-10T00:59:38.600Z,10.85
2023-05-10T01:02:12.411Z,10.82
2023-05-10T01:04:47.689Z,10.78
2023-05-10T01:07:21.090Z,10.74
2023-05-10T01:09:54.788Z,10.71
2023-05-10T01:12:28.612Z,10.68
2023-05-10T01:15:02.924Z,10.65
2023-05-10T01:17:37.882Z,10.62
2023-05-10T01:20:13.902Z,10.60
2023-05-10T01:23:31.483Z,10.59
2023-05-10T01:26:27.184Z,10.56
2023-05-10T01:29:18.872Z,10.53
2023-05-10T01:32:27.116Z,10.51
2023-05-10T01:35:06.072Z,10.48
2023-05-10T01:37:49.834Z,10.46
2023-05-10T01:40:30.291Z,10.46
2023-05-10T01:43:08.040Z,10.45
2023-05-10T01:45:47.409Z,10.41
2023-05-10T01:48:23.720Z,10.36
2023-05-10T01:50:59.431Z,10.32
2023-05-10T01:53:37.344Z,10.29
2023-05-10T01:56:14.042Z,10.28
2023-05-10T01:58:51.326Z,10.26
2023-05-10T02:01:27.503Z,10.23
2023-05-10T02:04:02.664Z,10.21
2023-05-10T02:06:37.095Z,10.19
2023-05-10T02:09:12.028Z,10.16
2023-05-10T02:11:46.536Z,10.11
2023-05-10T02:14:21.566Z,10.08
2023-05-10T02:16:57.475Z,10.07
2023-05-10T02:19:34.219Z,10.05
2023-05-10T02:22:09.517Z,10.02
2023-05-10T02:24:44.719Z,9.99
2023-05-10T02:27:20.038Z,9.97
2023-05-10T02:29:55.324Z,9.94
2023-05-10T02:32:32.071Z,9.90
2023-05-10T02:35:07.173Z,9.87
2023-05-10T02:37:43.647Z,9.85
2023-05-10T02:40:19.029Z,9.81
2023-05-10T02:42:57.652Z,9.77
2023-05-10T02:45:31.814Z,9.74
2023-05-10T02:48:05.568Z,9.71
2023-05-10T02:50:40.187Z,9.68
2023-05-10T02:53:18.834Z,9.67
2023-05-10T02:56:00.183Z,9.65
2023-05-10T02:58:34.188Z,9.65
2023-05-10T03:01:09.310Z,9.66
2023-05-10T03:03:43.083Z,9.66
2023-05-10T03:06:17.701Z,9.63
2023-05-10T03:08:51.502Z,9.59
2023-05-10T03:11:42.248Z,9.59
2023-05-10T03:14:27.157Z,9.60
2023-05-10T03:17:07.212Z,9.58
2023-05-10T03:19:48.570Z,9.57
2023-05-10T03:22:27.516Z,9.57
2023-05-10T03:25:03.369Z,9.60
2023-05-10T03:27:38.073Z,9.61
2023-05-10T03:30:15.096Z,9.63
2023-05-10T03:32:49.000Z,9.64
2023-05-10T03:35:23.580Z,9.62
2023-05-10T03:37:57.355Z,9.61
2023-05-10T03:40:33.485Z,9.61
2023-05-10T03:43:07.709Z,9.59
2023-05-10T03:45:41.409Z,9.58
2023-05-10T03:48:15.199Z,9.59
2023-05-10T03:50:50.680Z,9.59
2023-05-10T03:53:24.854Z,9.61
2023-05-10T03:55:58.803Z,9.64
2023-05-10T03:58:32.578Z,9.64
2023-05-10T04:01:08.298Z,9.64
2023-05-10T04:03:41.807Z,9.66
2023-05-10T04:06:15.555Z,9.69
2023-05-10T04:08:49.258Z,9.72
2023-05-10T04:11:24.223Z,9.76
2023-05-10T04:13:58.004Z,9.79
2023-05-10T04:16:31.676Z,9.82
2023-05-10T04:19:05.600Z,9.86
2023-05-10T04:21:39.278Z,9.89
2023-05-10T04:24:13.576Z,9.94
2023-05-10T04:26:47.370Z,9.98
2023-05-10T04:29:21.231Z,10.02
2023-05-10T04:31:55.283Z,10.07
2023-05-10T04:34:29.033Z,10.11
2023-05-10T04:37:02.751Z,10.18
2023-05-10T04:39:36.464Z,10.30
2023-05-10T04:42:10.582Z,10.36
2023-05-10T04:44:44.898Z,10.42
2023-05-10T04:47:18.412Z,10.47
2023-05-10T04:49:52.235Z,10.54
2023-05-10T04:52:53.582Z,10.65
2023-05-10T04:56:19.881Z,10.73
2023-05-10T04:58:54.415Z,10.79
2023-05-10T05:01:27.955Z,10.86
2023-05-10T05:04:01.911Z,11.14
2023-05-10T05:06:35.627Z,11.50
2023-05-10T05:09:11.409Z,11.79
2023-05-10T05:11:44.888Z,13.05
2023-05-10T05:14:18.656Z,14.09
2023-05-10T05:16:52.527Z,14.71
2023-05-10T05:19:26.278Z,15.62
2023-05-10T05:21:59.852Z,16.58
2023-05-10T05:24:37.853Z,17.45
2023-05-10T05:27:11.867Z,17.91
2023-05-10T05:29:45.544Z,17.79
2023-05-10T05:32:19.226Z,17.10
2023-05-10T05:34:53.006Z,16.79
2023-05-10T05:37:26.881Z,17.04
2023-05-10T05:40:02.763Z,17.25
2023-05-10T05:42:36.352Z,17.74
2023-05-10T05:45:14.686Z,18.37
2023-05-10T05:47:46.904Z,18.09
2023-05-10T05:50:20.996Z,17.84
2023-05-10T05:52:54.463Z,17.58
2023-05-10T05:55:28.435Z,17.99
2023-05-10T05:58:02.641Z,18.60
2023-05-10T06:00:36.191Z,19.40
2023-05-10T06:03:10.008Z,20.05
2023-05-10T06:05:43.715Z,19.94
2023-05-10T06:08:17.737Z,19.91
2023-05-10T06:10:51.706Z,20.63
2023-05-10T06:13:25.921Z,21.03
2023-05-10T06:15:59.853Z,21.41
2023-05-10T06:18:33.460Z,22.25
2023-05-10T06:21:07.072Z,23.12
2023-05-10T06:23:41.337Z,23.70
2023-05-10T06:26:15.158Z,24.73
2023-05-10T06:28:49.288Z,25.56
2023-05-10T06:31:23.112Z,25.79
2023-05-10T06:33:57.258Z,25.93
2023-05-10T06:36:32.209Z,26.36
2023-05-10T06:39:06.164Z,26.63
2023-05-10T06:41:39.885Z,26.88
2023-05-10T06:44:14.295Z,27.72
2023-05-10T06:46:48.313Z,28.42
2023-05-10T06:49:22.764Z,29.27
2023-05-10T06:51:56.539Z,30.57
2023-05-10T06:54:30.365Z,31.38
2023-05-10T06:57:08.768Z,31.32
2023-05-10T06:59:47.085Z,30.93
2023-05-10T07:02:21.261Z,30.42
2023-05-10T07:04:55.580Z,30.71
2023-05-10T07:07:30.239Z,31.55
2023-05-10T07:10:04.117Z,32.35
2023-05-10T07:12:38.305Z,32.03
2023-05-10T07:15:13.669Z,31.99
2023-05-10T07:17:47.644Z,32.39
2023-05-10T07:20:21.809Z,32.79
2023-05-10T07:22:55.159Z,32.92
2023-05-10T07:25:28.792Z,33.36
2023-05-10T07:28:02.567Z,34.42
2023-05-10T07:30:36.110Z,34.42
2023-05-10T07:33:10.283Z,34.22
2023-05-10T07:35:44.495Z,34.93
2023-05-10T07:38:18.773Z,34.98
2023-05-10T07:40:52.663Z,34.28
2023-05-10T07:43:26.049Z,34.08
2023-05-10T07:46:01.160Z,33.36
2023-05-10T07:48:35.641Z,31.58
2023-05-10T07:51:10.691Z,30.32
2023-05-10T07:53:44.621Z,29.82
2023-05-10T07:56:30.971Z,29.19
2023-05-10T07:59:06.463Z,28.33
2023-05-10T08:01:40.539Z,27.81
2023-05-10T08:04:14.349Z,26.90
2023-05-10T08:06:48.130Z,25.80
2023-05-10T08:09:25.344Z,25.24
2023-05-10T08:12:00.678Z,25.44
2023-05-10T08:14:35.558Z,25.38
2023-05-10T08:17:09.389Z,25.11
2023-05-10T08:19:42.927Z,24.92
2023-05-10T08:22:17.010Z,25.54
2023-05-10T08:24:51.286Z,26.76
2023-05-10T08:27:25.832Z,28.12
2023-05-10T08:29:59.398Z,29.44
2023-05-10T08:32:33.063Z,30.43
2023-05-10T08:35:07.002Z,30.75
2023-05-10T08:37:40.320Z,29.96
2023-05-10T08:40:17.083Z,30.41
2023-05-10T08:42:58.788Z,31.44
2023-05-10T08:45:40.308Z,31.10
2023-05-10T08:48:14.681Z,29.81
2023-05-10T08:50:50.533Z,28.73
2023-05-10T08:53:27.421Z,27.94
2023-05-10T08:56:01.952Z,27.66
2023-05-10T08:58:35.861Z,28.28
2023-05-10T09:01:10.229Z,28.99
2023-05-10T09:03:45.898Z,29.11
2023-05-10T09:06:19.812Z,29.05
2023-05-10T09:08:54.757Z,29.80
2023-05-10T09:11:30.450Z,30.21
2023-05-10T09:14:04.345Z,29.53
2023-05-10T09:16:38.345Z,28.48
2023-05-10T09:19:12.660Z,27.45
2023-05-10T09:21:46.590Z,26.85
2023-05-10T09:24:21.322Z,27.30
2023-05-10T09:26:55.018Z,28.23
2023-05-10T09:29:29.600Z,27.35
2023-05-10T09:32:03.272Z,25.97
2023-05-10T09:34:41.598Z,24.76
2023-05-10T09:37:13.465Z,23.87
2023-05-10T09:39:48.317Z,22.92
2023-05-10T09:42:22.834Z,22.26
2023-05-10T09:44:56.354Z,22.06
2023-05-10T09:47:30.031Z,22.12
2023-05-10T09:50:05.889Z,22.96
2023-05-10T09:52:51.779Z,24.49
2023-05-10T09:55:26.939Z,25.97
2023-05-10T09:58:05.765Z,28.18
2023-05-10T10:00:42.688Z,30.00
2023-05-10T10:03:20.096Z,31.92
2023-05-10T10:05:54.665Z,33.53
2023-05-10T10:08:28.358Z,34.36
2023-05-10T10:11:02.029Z,35.41
2023-05-10T10:13:35.712Z,36.68
2023-05-10T10:16:10.946Z,38.12
2023-05-10T10:18:45.837Z,38.82
2023-05-10T10:21:20.175Z,39.15
2023-05-10T10:23:54.329Z,39.13
2023-05-10T10:26:28.907Z,38.49
2023-05-10T10:29:13.602Z,37.57
2023-05-10T10:31:55.102Z,35.94
2023-05-10T10:34:30.958Z,34.98
2023-05-10T10:37:09.759Z,35.40
2023-05-10T10:39:44.681Z,35.75
2023-05-10T10:42:39.236Z,35.81
2023-05-10T10:45:19.682Z,35.85
2023-05-10T10:47:56.208Z,34.75
2023-05-10T10:50:30.374Z,32.79
2023-05-10T10:53:14.971Z,31.07
2023-05-10T10:55:52.448Z,30.19
2023-05-10T10:58:36.202Z,30.15
2023-05-10T11:01:18.433Z,30.05
2023-05-10T11:04:22.011Z,30.67
2023-05-10T11:07:22.787Z,30.59
2023-05-10T11:09:57.417Z,30.00
2023-05-10T11:12:32.086Z,30.12
2023-05-10T11:15:06.810Z,31.23
2023-05-10T11:17:40.898Z,32.50
2023-05-10T11:20:17.316Z,32.80
2023-05-10T11:22:57.621Z,32.12
2023-05-10T11:25:32.736Z,31.05
2023-05-10T11:28:08.012Z,29.91
2023-05-10T11:30:43.414Z,29.18
2023-05-10T11:33:22.113Z,28.68
2023-05-10T11:35:55.742Z,28.12
2023-05-10T11:38:30.199Z,27.81
2023-05-10T11:41:04.392Z,28.73
2023-05-10T11:43:39.782Z,30.29
2023-05-10T11:46:15.332Z,30.76
2023-05-10T11:48:50.556Z,30.47
2023-05-10T11:51:27.096Z,29.64
2023-05-10T11:54:02.250Z,29.05
2023-05-10T11:56:38.077Z,29.76
2023-05-10T11:59:12.498Z,30.82
2023-05-10T12:01:46.692Z,30.76
2023-05-10T12:04:21.634Z,29.75
2023-05-10T12:06:56.284Z,29.63
2023-05-10T12:09:42.573Z,29.70
2023-05-10T12:12:20.259Z,29.89
2023-05-10T12:14:55.295Z,30.15
2023-05-10T12:17:32.380Z,30.53
2023-05-10T12:20:18.444Z,31.05
2023-05-10T12:22:55.254Z,31.56
2023-05-10T12:25:33.001Z,31.22
2023-05-10T12:31:00.580Z,30.67
2023-05-10T12:33:43.165Z,30.30
2023-05-10T12:36:18.563Z,29.74
2023-05-10T12:38:53.145Z,29.65
2023-05-10T12:41:26.429Z,30.47
2023-05-10T12:44:00.342Z,30.82
2023-05-10T12:46:34.144Z,30.89
2023-05-10T12:49:09.352Z,31.45
2023-05-10T12:51:43.805Z,31.26
2023-05-10T12:54:17.389Z,30.79
2023-05-10T12:56:51.346Z,30.38
2023-05-10T12:59:25.181Z,29.71
2023-05-10T13:01:59.521Z,28.69
2023-05-10T13:04:33.992Z,27.92
2023-05-10T13:07:07.909Z,27.34
2023-05-10T13:09:41.414Z,26.69
2023-05-10T13:12:14.979Z,26.12
2023-05-10T13:14:48.923Z,25.76
2023-05-10T13:17:22.585Z,25.35
2023-05-10T13:19:56.079Z,24.76
2023-05-10T13:22:39.800Z,24.02
2023-05-10T13:25:15.851Z,23.31
2023-05-10T13:27:49.245Z,22.82
2023-05-10T13:30:22.926Z,22.57
2023-05-10T13:32:56.748Z,22.61
2023-05-10T13:35:30.254Z,22.59
2023-05-10T13:38:03.899Z,22.25
2023-05-10T13:40:37.282Z,21.96
2023-05-10T13:43:11.630Z,21.71
2023-05-10T13:45:45.467Z,21.51
2023-05-10T13:48:19.021Z,21.38
2023-05-10T13:50:52.443Z,21.42
2023-05-10T13:53:26.360Z,21.35
2023-05-10T13:56:01.396Z,21.11
2023-05-10T13:58:36.696Z,21.00
2023-05-10T14:01:10.541Z,20.95
2023-05-10T14:03:44.747Z,20.90
2023-05-10T14:06:18.833Z,20.92
2023-05-10T14:08:52.676Z,20.86
2023-05-10T14:11:26.300Z,20.78
2023-05-10T14:13:59.788Z,20.70
2023-05-10T14:16:34.236Z,20.72
2023-05-10T14:19:08.301Z,20.68
2023-05-10T14:21:42.292Z,20.65
2023-05-10T14:24:16.704Z,20.67
2023-05-10T14:26:55.341Z,20.64
2023-05-10T14:29:30.744Z,20.56
2023-05-10T14:32:05.228Z,20.48
2023-05-10T14:34:39.422Z,20.41
2023-05-10T14:37:14.537Z,20.36
2023-05-10T14:39:48.881Z,20.31
2023-05-10T14:42:22.677Z,20.24
2023-05-10T14:44:56.734Z,20.16
2023-05-10T14:47:31.660Z,20.10
2023-05-10T14:50:05.935Z,20.04
2023-05-10T14:52:39.469Z,19.96
2023-05-10T14:55:13.867Z,19.89
2023-05-10T14:57:48.697Z,19.86
2023-05-10T15:00:23.792Z,19.87
2023-05-10T15:02:58.897Z,19.88
2023-05-10T15:05:33.762Z,19.91
2023-05-10T15:08:08.333Z,19.97
2023-05-10T15:10:42.962Z,19.94
2023-05-10T15:13:16.647Z,19.91
2023-05-10T15:15:50.555Z,19.91
2023-05-10T15:18:26.715Z,19.94
2023-05-10T15:21:01.123Z,19.98
2023-05-10T15:23:34.644Z,20.01
2023-05-10T15:26:09.105Z,20.03
2023-05-10T15:28:42.582Z,19.94
2023-05-10T15:31:16.134Z,19.91
2023-05-10T15:33:49.533Z,19.93
2023-05-10T15:36:23.427Z,19.95
2023-05-10T15:38:57.772Z,19.95
2023-05-10T15:41:31.679Z,19.97
2023-05-10T15:44:06.801Z,19.89
2023-05-10T15:46:40.452Z,19.72
2023-05-10T15:49:14.349Z,19.62
2023-05-10T15:51:48.309Z,19.61
2023-05-10T15:54:23.195Z,19.58
2023-05-10T15:56:57.183Z,19.54
2023-05-10T15:59:30.947Z,19.50
2023-05-10T16:02:05.572Z,19.47
2023-05-10T16:04:39.793Z,19.49
2023-05-10T16:07:13.553Z,19.54
2023-05-10T16:09:47.390Z,19.57
2023-05-10T16:12:21.145Z,19.50
2023-05-10T16:14:54.901Z,19.37
2023-05-10T16:17:29.544Z,19.24
2023-05-10T16:20:04.701Z,19.21
2023-05-10T16:22:39.311Z,19.22
2023-05-10T16:25:14.457Z,19.21
2023-05-10T16:27:48.274Z,19.20
2023-05-10T16:30:23.651Z,19.20
2023-05-10T16:32:58.621Z,19.15
2023-05-10T16:35:33.118Z,19.10
2023-05-10T16:38:07.085Z,19.01
2023-05-10T16:40:41.298Z,18.91
2023-05-10T16:43:15.425Z,18.83
2023-05-10T16:45:49.286Z,18.77
2023-05-10T16:48:22.886Z,18.72
2023-05-10T16:50:57.142Z,18.64
2023-05-10T16:53:31.496Z,18.58
2023-05-10T16:56:06.342Z,18.56
2023-05-10T16:58:40.596Z,18.54
2023-05-10T17:01:14.424Z,18.48
2023-05-10T17:03:49.184Z,18.47
2023-05-10T17:06:23.503Z,18.43
2023-05-10T17:08:57.599Z,18.41
2023-05-10T17:11:31.337Z,18.36
2023-05-10T17:14:05.127Z,18.33
2023-05-10T17:16:38.994Z,18.29
2023-05-10T17:19:13.087Z,18.25
2023-05-10T17:21:46.893Z,18.19
2023-05-10T17:24:20.975Z,18.13
2023-05-10T17:26:55.659Z,18.07
2023-05-10T17:29:32.461Z,18.03
2023-05-10T17:32:06.766Z,18.00
2023-05-10T17:34:41.186Z,17.94
2023-05-10T17:37:14.685Z,17.86
2023-05-10T17:39:48.112Z,17.77
2023-05-10T17:42:21.909Z,17.71
2023-05-10T17:44:56.143Z,17.65
2023-05-10T17:47:30.644Z,17.62
2023-05-10T17:50:05.487Z,17.56
2023-05-10T17:52:39.784Z,17.52
2023-05-10T17:55:14.659Z,17.46
2023-05-10T17:57:50.566Z,17.39
2023-05-10T18:00:26.120Z,17.33
2023-05-10T18:02:59.857Z,17.28
2023-05-10T18:05:37.414Z,17.24
2023-05-10T18:08:11.333Z,17.20
2023-05-10T18:10:45.007Z,17.16
2023-05-10T18:13:19.408Z,17.10
2023-05-10T18:15:53.000Z,17.06
2023-05-10T18:18:27.090Z,17.00
2023-05-10T18:21:01.136Z,16.95
2023-05-10T18:23:34.982Z,16.90
2023-05-10T18:26:09.071Z,16.84
2023-05-10T18:28:42.910Z,16.79
2023-05-10T18:31:16.758Z,16.74
2023-05-10T18:33:50.771Z,16.69
2023-05-10T18:36:25.027Z,16.64
2023-05-10T18:38:59.032Z,16.59
2023-05-10T18:41:32.735Z,16.55
2023-05-10T18:44:06.625Z,16.48
2023-05-10T18:46:40.916Z,16.43
2023-05-10T18:49:15.908Z,16.38
2023-05-10T18:51:50.070Z,16.34
2023-05-10T18:54:24.388Z,16.31
2023-05-10T18:56:59.019Z,16.27
2023-05-10T18:59:33.463Z,16.23
2023-05-10T19:02:08.097Z,16.20
2023-05-10T19:04:45.075Z,16.16
2023-05-10T19:07:19.607Z,16.11
2023-05-10T19:09:55.981Z,16.08
2023-05-10T19:12:30.074Z,16.04
2023-05-10T19:15:05.421Z,15.99
2023-05-10T19:17:45.023Z,15.95
2023-05-10T19:20:29.525Z,15.90
2023-05-10T19:23:10.029Z,15.85
2023-05-10T19:25:47.629Z,15.80
2023-05-10T19:28:21.985Z,15.76
2023-05-10T19:30:57.042Z,15.71
2023-05-10T19:33:32.361Z,15.67
2023-05-10T19:36:10.163Z,15.63
2023-05-10T19:38:49.469Z,15.60
2023-05-10T19:41:24.321Z,15.56
2023-05-10T19:43:58.746Z,15.50
2023-05-10T19:46:33.346Z,15.47
2023-05-10T19:49:09.901Z,15.44
2023-05-10T19:51:45.194Z,15.39
2023-05-10T19:54:19.340Z,15.34
2023-05-10T19:56:53.494Z,15.31
2023-05-10T19:59:29.201Z,15.28
2023-05-10T20:02:04.622Z,15.25
2023-05-10T20:04:38.241Z,15.22
2023-05-10T20:07:13.252Z,15.18
2023-05-10T20:09:48.604Z,15.14
2023-05-10T20:12:23.386Z,15.11
2023-05-10T20:14:57.745Z,15.09
2023-05-10T20:17:33.622Z,15.05
2023-05-10T20:20:08.864Z,15.02
2023-05-10T20:22:42.934Z,14.98
2023-05-10T20:25:18.397Z,14.95
2023-05-10T20:27:52.404Z,14.91
2023-05-10T20:30:27.108Z,14.86
2023-05-10T20:33:02.366Z,14.82
2023-05-10T20:35:36.234Z,14.81
2023-05-10T20:38:09.987Z,14.77
2023-05-10T20:40:43.834Z,14.74
2023-05-10T20:43:17.429Z,14.69
2023-05-10T20:45:51.094Z,14.65
2023-05-10T20:48:24.613Z,14.58
2023-05-10T20:50:58.658Z,14.51
2023-05-10T20:53:32.171Z,14.46
2023-05-10T20:56:06.280Z,14.42
2023-05-10T20:58:40.503Z,14.37
2023-05-10T21:01:14.621Z,14.32
2023-05-10T21:03:48.376Z,14.26
2023-05-10T21:06:22.846Z,14.22
2023-05-10T21:08:56.731Z,14.18
2023-05-10T21:11:30.099Z,14.14
2023-05-10T21:14:04.035Z,14.11
2023-05-10T21:16:37.604Z,14.10
2023-05-10T21:19:11.551Z,14.04
2023-05-10T21:21:44.860Z,13.98
2023-05-10T21:24:18.578Z,13.94
2023-05-10T21:26:52.557Z,13.89
2023-05-10T21:29:26.433Z,13.84
2023-05-10T21:32:00.403Z,13.82
2023-05-10T21:34:34.186Z,13.78
2023-05-10T21:37:07.998Z,13.74
2023-05-10T21:39:41.600Z,13.71
2023-05-10T21:42:15.371Z,13.67
2023-05-10T21:44:48.735Z,13.62
2023-05-10T21:47:22.209Z,13.58
2023-05-10T21:49:56.079Z,13.55
2023-05-10T21:52:29.764Z,13.51
2023-05-10T21:55:04.637Z,13.46
2023-05-10T21:57:38.475Z,13.44
2023-05-10T22:00:13.995Z,13.40
2023-05-10T22:02:48.026Z,13.35
2023-05-10T22:05:21.935Z,13.32
2023-05-10T22:07:55.421Z,13.29
2023-05-10T22:10:28.958Z,13.26
2023-05-10T22:13:03.650Z,13.25
2023-05-10T22:15:37.189Z,13.23
2023-05-10T22:18:10.790Z,13.20
2023-05-10T22:20:45.879Z,13.17
2023-05-10T22:23:19.504Z,13.15
2023-05-10T22:25:52.928Z,13.12
2023-05-10T22:28:26.458Z,13.09
2023-05-10T22:31:00.168Z,13.06
2023-05-10T22:33:33.435Z,13.03
2023-05-10T22:36:07.898Z,13.00
2023-05-10T22:38:41.498Z,12.98
2023-05-10T22:41:15.102Z,12.94
2023-05-10T22:43:48.827Z,12.92
2023-05-10T22:46:22.233Z,12.88
2023-05-10T22:48:56.880Z,12.84
2023-05-10T22:51:31.814Z,12.83
2023-05-10T22:54:07.508Z,12.81
2023-05-10T22:56:41.345Z,12.76
2023-05-10T22:59:15.173Z,12.72
2023-05-10T23:01:49.424Z,12.70
2023-05-10T23:04:22.977Z,12.67
2023-05-10T23:06:56.957Z,12.64
2023-05-10T23:09:30.866Z,12.60
2023-05-10T23:12:04.882Z,12.56
2023-05-10T23:14:38.595Z,12.53
2023-05-10T23:17:12.063Z,12.50
2023-05-10T23:19:45.741Z,12.49
2023-05-10T23:22:19.359Z,12.47
2023-05-10T23:24:53.092Z,12.44
2023-05-10T23:27:29.856Z,12.42
2023-05-10T23:30:03.635Z,12.38
2023-05-10T23:32:37.188Z,12.34
2023-05-10T23:35:12.286Z,12.31
2023-05-10T23:37:45.719Z,12.30
2023-05-10T23:40:19.660Z,12.28
2023-05-10T23:42:53.416Z,12.25
2023-05-10T23:45:27.586Z,12.22
2023-05-10T23:48:01.167Z,12.21
2023-05-10T23:50:35.076Z,12.17
2023-05-10T23:53:08.712Z,12.14
2023-05-10T23:55:42.679Z,12.11
2023-05-10T23:58:16.126Z,12.10
